Time;durP1;ratioP1;P1;durP2;ratioP2;P2;SDS_P1;SDS_P2;PMS_P1;PMS_P2;Temp;Humidity;BMP_temperature;BMP_pressure;BME280_temperature;BME280_humidity;BME280_pressure;Samples;Min_cycle;Max_cycle;Signal;HPM_P1;HPM_P2
2023/05/18 00:01:06;;;;;;;15.43;6.25;;;8.20;99.90;;;;;;7589575;19;20055;-71
2023/05/18 00:03:40;;;;;;;12.18;6.18;;;8.20;99.90;;;;;;7590463;19;20014;-72
2023/05/18 00:06:13;;;;;;;18.70;7.97;;;8.10;99.90;;;;;;7596304;19;20028;-72
2023/05/18 00:08:45;;;;;;;15.82;6.75;;;8.00;99.90;;;;;;7588383;19;20339;-73
2023/05/18 00:11:17;;;;;;;21.70;7.38;;;8.00;99.90;;;;;;7596657;19;20046;-72
2023/05/18 00:13:50;;;;;;;21.30;6.95;;;7.90;99.90;;;;;;7590008;19;20014;-73
2023/05/18 00:16:23;;;;;;;12.10;7.03;;;7.90;99.90;;;;;;7599128;19;20033;-72
2023/05/18 00:18:55;;;;;;;15.23;7.03;;;7.80;99.90;;;;;;7593295;19;20303;-72
2023/05/18 00:21:29;;;;;;;15.95;7.03;;;7.80;99.90;;;;;;7598876;19;21068;-71
2023/05/18 00:24:01;;;;;;;15.45;6.88;;;7.70;99.90;;;;;;7599540;19;20036;-74
2023/05/18 00:26:34;;;;;;;14.63;6.75;;;7.80;99.90;;;;;;7587396;19;20026;-72
2023/05/18 00:29:07;;;;;;;12.52;6.43;;;7.80;99.90;;;;;;7589670;19;20094;-72
2023/05/18 00:31:40;;;;;;;16.25;7.50;;;7.80;99.90;;;;;;7587753;19;20945;-73
2023/05/18 00:34:14;;;;;;;15.80;6.75;;;7.80;99.90;;;;;;7579563;19;20364;-73
2023/05/18 00:36:50;;;;;;;13.20;7.47;;;7.70;99.90;;;;;;7555502;19;20014;-82
2023/05/18 00:39:27;;;;;;;14.55;6.43;;;7.70;99.90;;;;;;7593695;19;20033;-82
2023/05/18 00:41:59;;;;;;;16.85;6.90;;;7.60;99.90;;;;;;7591172;19;20131;-82
2023/05/18 00:44:32;;;;;;;15.57;7.28;;;7.60;99.90;;;;;;7581862;19;20011;-82
2023/05/18 00:47:04;;;;;;;14.93;6.90;;;7.60;99.90;;;;;;7594139;19;20010;-82
2023/05/18 00:49:37;;;;;;;20.52;7.60;;;7.50;99.90;;;;;;7596367;19;20642;-82
2023/05/18 00:52:09;;;;;;;13.88;7.20;;;7.50;99.90;;;;;;7597148;19;20021;-81
2023/05/18 00:54:42;;;;;;;14.40;6.72;;;7.50;99.90;;;;;;7598190;19;20021;-82
2023/05/18 00:57:15;;;;;;;13.82;6.70;;;7.50;99.90;;;;;;7601355;19;20026;-82
2023/05/18 00:59:48;;;;;;;16.88;6.93;;;7.40;99.90;;;;;;7583012;19;20018;-82
2023/05/18 01:02:21;;;;;;;;;;;7.30;99.90;;;;;;7600334;19;20775;-82
2023/05/18 01:04:53;;;;;;;12.02;6.25;;;7.20;99.90;;;;;;7596384;19;19915;-82
2023/05/18 01:07:27;;;;;;;17.90;7.88;;;7.20;99.90;;;;;;7590466;19;20022;-81
2023/05/18 01:09:59;;;;;;;15.65;7.45;;;7.20;99.90;;;;;;7596146;19;20029;-82
2023/05/18 01:12:33;;;;;;;13.15;7.15;;;7.20;99.90;;;;;;7609315;19;20384;-82
2023/05/18 01:15:16;;;;;;;13.38;7.70;;;7.10;99.90;;;;;;7598970;19;20018;-82
2023/05/18 01:18:03;;;;;;;15.13;8.20;;;7.20;99.90;;;;;;7605169;19;20750;-82
2023/05/18 01:20:58;;;;;;;18.13;7.68;;;7.20;99.90;;;;;;7602147;19;20022;-82
2023/05/18 01:24:02;;;;;;;16.50;7.90;;;7.20;99.90;;;;;;7601795;19;20053;-82
2023/05/18 01:26:40;;;;;;;19.13;8.55;;;7.10;99.90;;;;;;7605107;19;20018;-82
2023/05/18 01:29:14;;;;;;;16.20;8.30;;;7.10;99.90;;;;;;7600353;19;20086;-83
2023/05/18 01:31:46;;;;;;;18.52;8.60;;;7.10;99.90;;;;;;7598226;19;20086;-82
2023/05/18 01:34:19;;;;;;;13.15;7.57;;;7.00;99.90;;;;;;7602641;19;20017;-83
2023/05/18 01:36:51;;;;;;;16.98;8.27;;;7.00;99.90;;;;;;7607582;19;20018;-82
2023/05/18 01:39:24;;;;;;;;;;;7.00;99.90;;;;;;7608117;19;20056;-82
2023/05/18 01:42:04;;;;;;;17.23;7.25;;;6.90;99.90;;;;;;7598150;19;20812;-82
2023/05/18 01:44:44;;;;;;;17.95;7.60;;;6.90;99.90;;;;;;7598425;19;20015;-82
2023/05/18 01:47:17;;;;;;;19.70;8.35;;;6.90;99.90;;;;;;7598477;19;20086;-82
2023/05/18 01:50:11;;;;;;;16.47;7.10;;;6.90;99.90;;;;;;7591796;19;20139;-82
2023/05/18 01:52:51;;;;;;;17.33;7.60;;;6.90;99.90;;;;;;7599714;19;21278;-82
2023/05/18 01:55:28;;;;;;;25.52;7.72;;;6.90;99.90;;;;;;7598955;19;20448;-82
2023/05/18 01:58:03;;;;;;;15.55;7.28;;;6.90;99.90;;;;;;7593954;19;20059;-82
2023/05/18 02:00:36;;;;;;;20.48;8.73;;;6.90;99.90;;;;;;7595422;19;20022;-83
2023/05/18 02:03:11;;;;;;;16.83;7.87;;;7.00;99.90;;;;;;7606371;19;20030;-82
2023/05/18 02:05:43;;;;;;;15.50;8.55;;;7.00;99.90;;;;;;7600794;19;20620;-82
2023/05/18 02:08:16;;;;;;;17.17;7.97;;;7.00;99.90;;;;;;7600672;19;21739;-82
2023/05/18 02:10:48;;;;;;;15.55;7.90;;;7.00;99.90;;;;;;7600384;19;20010;-81
2023/05/18 02:13:21;;;;;;;15.05;8.15;;;7.10;99.90;;;;;;7596388;19;20097;-82
2023/05/18 02:15:53;;;;;;;18.70;8.23;;;7.10;99.90;;;;;;7603539;19;20058;-83
2023/05/18 02:18:25;;;;;;;17.60;8.85;;;7.10;99.90;;;;;;7602834;19;20029;-83
2023/05/18 02:20:58;;;;;;;17.70;8.63;;;7.10;99.90;;;;;;7600543;19;20025;-82
2023/05/18 02:23:30;;;;;;;21.60;8.38;;;7.10;99.90;;;;;;7599498;19;21537;-83
2023/05/18 02:26:03;;;;;;;17.17;8.80;;;7.10;99.90;;;;;;7605855;19;20018;-83
2023/05/18 02:28:39;;;;;;;16.35;8.02;;;7.20;99.90;;;;;;7601246;19;20014;-82
2023/05/18 02:31:11;;;;;;;16.80;8.77;;;7.20;99.90;;;;;;7604211;19;20082;-82
2023/05/18 02:33:43;;;;;;;15.05;9.50;;;7.20;99.90;;;;;;7596336;19;20014;-82
2023/05/18 02:36:17;;;;;;;20.60;9.07;;;7.20;99.90;;;;;;7606416;19;20365;-82
2023/05/18 02:38:49;;;;;;;18.45;9.10;;;7.20;99.90;;;;;;7600558;19;20029;-82
2023/05/18 02:41:22;;;;;;;17.73;9.85;;;7.20;99.90;;;;;;7605148;19;20116;-82
2023/05/18 02:43:54;;;;;;;20.83;10.27;;;7.20;99.90;;;;;;7589177;19;20019;-83
2023/05/18 02:46:26;;;;;;;24.48;10.80;;;7.20;99.90;;;;;;7599575;19;20023;-82
2023/05/18 02:48:59;;;;;;;19.17;10.32;;;7.20;99.90;;;;;;7601529;19;20031;-82
2023/05/18 02:51:32;;;;;;;23.90;11.35;;;7.20;99.90;;;;;;7595706;19;20021;-82
2023/05/18 02:54:05;;;;;;;22.10;9.75;;;7.20;99.90;;;;;;7583689;19;20018;-82
2023/05/18 02:56:40;;;;;;;21.67;10.60;;;7.20;99.90;;;;;;7590187;19;20047;-82
2023/05/18 02:59:27;;;;;;;18.45;9.98;;;7.20;99.90;;;;;;7588467;19;20905;-82
2023/05/18 03:01:59;;;;;;;17.63;10.13;;;7.20;99.90;;;;;;7595247;19;20038;-82
2023/05/18 03:04:31;;;;;;;21.70;10.57;;;7.20;99.90;;;;;;7595047;19;20017;-82
2023/05/18 03:07:03;;;;;;;16.92;10.02;;;7.10;99.90;;;;;;7596587;19;20047;-83
2023/05/18 03:09:37;;;;;;;22.95;9.65;;;7.10;99.90;;;;;;7600408;19;20049;-82
2023/05/18 03:12:09;;;;;;;19.80;10.63;;;7.10;99.90;;;;;;7596843;19;20049;-82
2023/05/18 03:14:41;;;;;;;21.02;10.27;;;7.00;99.90;;;;;;7596933;19;20034;-83
2023/05/18 03:17:14;;;;;;;23.92;10.38;;;7.10;99.90;;;;;;7602527;19;20018;-82
2023/05/18 03:19:46;;;;;;;17.88;10.75;;;7.00;99.90;;;;;;7592277;19;20048;-82
2023/05/18 03:22:18;;;;;;;22.33;9.63;;;7.00;99.90;;;;;;7604190;19;20021;-82
2023/05/18 03:24:54;;;;;;;24.17;10.93;;;7.00;99.90;;;;;;7598765;19;20541;-82
2023/05/18 03:27:27;;;;;;;25.23;12.00;;;7.00;99.90;;;;;;7584220;19;20046;-82
2023/05/18 03:30:00;;;;;;;20.35;11.95;;;7.00;99.90;;;;;;7580281;19;20014;-82
2023/05/18 03:32:35;;;;;;;21.83;11.20;;;6.90;99.90;;;;;;7590712;19;20078;-82
2023/05/18 03:35:08;;;;;;;23.73;11.65;;;6.90;99.90;;;;;;7602126;19;20617;-83
2023/05/18 03:37:41;;;;;;;19.77;11.65;;;6.90;99.90;;;;;;7603291;19;20641;-82
2023/05/18 03:40:15;;;;;;;25.00;12.40;;;6.80;99.90;;;;;;7598374;19;20014;-82
2023/05/18 03:42:49;;;;;;;19.30;11.25;;;6.70;99.90;;;;;;7594043;19;20017;-81
2023/05/18 03:45:21;;;;;;;29.27;11.68;;;6.70;99.90;;;;;;7598904;19;20048;-81
2023/05/18 03:47:53;;;;;;;17.70;10.80;;;6.70;99.90;;;;;;7586948;19;20010;-82
2023/05/18 03:50:28;;;;;;;21.80;12.40;;;6.70;99.90;;;;;;7594705;19;20019;-82
2023/05/18 03:53:01;;;;;;;21.55;12.32;;;6.70;99.90;;;;;;7586155;19;20042;-82
2023/05/18 03:55:34;;;;;;;26.63;11.85;;;6.70;99.90;;;;;;7593177;19;20010;-82
2023/05/18 03:58:06;;;;;;;23.63;12.55;;;6.70;99.90;;;;;;7591248;19;20021;-82
2023/05/18 04:00:41;;;;;;;20.17;12.20;;;6.70;99.90;;;;;;7597865;19;20014;-82
2023/05/18 04:03:14;;;;;;;22.00;12.23;;;6.60;99.90;;;;;;7593825;19;20018;-82
2023/05/18 04:05:48;;;;;;;26.73;11.52;;;6.70;99.90;;;;;;7599886;19;20022;-81
2023/05/18 04:08:24;;;;;;;20.20;11.68;;;6.70;99.90;;;;;;7621312;19;20002;-81
2023/05/18 04:10:56;;;;;;;27.00;12.38;;;6.70;99.90;;;;;;7632052;19;20015;-81
2023/05/18 04:13:29;;;;;;;18.63;10.90;;;6.70;99.90;;;;;;7624627;19;20487;-81
2023/05/18 04:16:02;;;;;;;24.13;12.53;;;6.60;99.90;;;;;;7640983;19;19998;-81
2023/05/18 04:18:35;;;;;;;25.77;12.63;;;6.70;99.90;;;;;;7633646;19;20009;-81
2023/05/18 04:21:07;;;;;;;24.20;11.57;;;6.70;99.90;;;;;;7623101;19;20311;-82
2023/05/18 04:23:39;;;;;;;23.30;12.35;;;6.70;99.90;;;;;;7596476;19;20014;-83
2023/05/18 04:26:18;;;;;;;22.48;12.27;;;6.70;99.90;;;;;;7593768;19;20018;-82
2023/05/18 04:28:51;;;;;;;19.77;11.25;;;6.80;99.90;;;;;;7597826;19;20519;-82
2023/05/18 04:31:25;;;;;;;21.15;11.35;;;6.90;99.90;;;;;;7590023;19;20054;-82
2023/05/18 04:33:59;;;;;;;24.15;12.25;;;6.90;99.90;;;;;;7574522;19;20014;-82
2023/05/18 04:36:31;;;;;;;23.90;11.50;;;6.90;99.90;;;;;;7594287;19;20046;-82
2023/05/18 04:39:06;;;;;;;25.65;12.20;;;6.90;99.90;;;;;;7594144;19;20020;-83
2023/05/18 04:41:40;;;;;;;26.05;12.80;;;6.90;99.90;;;;;;7594488;19;20048;-82
2023/05/18 04:44:14;;;;;;;20.58;11.75;;;7.00;99.90;;;;;;7587688;19;20022;-82
2023/05/18 04:46:46;;;;;;;25.67;11.60;;;7.00;99.90;;;;;;7587272;19;20050;-82
2023/05/18 04:49:22;;;;;;;20.08;11.43;;;7.00;99.90;;;;;;7601610;19;20048;-82
2023/05/18 04:51:55;;;;;;;21.85;11.60;;;7.10;99.90;;;;;;7589223;19;20452;-83
2023/05/18 04:54:29;;;;;;;19.87;10.63;;;7.10;99.90;;;;;;7585451;19;20047;-82
2023/05/18 04:57:02;;;;;;;20.80;10.90;;;7.20;99.90;;;;;;7591102;19;21028;-82
2023/05/18 04:59:35;;;;;;;22.30;11.30;;;7.30;99.90;;;;;;7587833;19;20524;-82
2023/05/18 05:02:08;;;;;;;19.60;10.82;;;7.30;99.90;;;;;;7586512;19;21262;-82
2023/05/18 05:04:41;;;;;;;20.52;9.98;;;7.40;99.90;;;;;;7580538;19;20031;-82
2023/05/18 05:07:13;;;;;;;16.77;10.68;;;7.50;99.90;;;;;;7577204;19;20948;-83
2023/05/18 05:09:49;;;;;;;17.17;9.43;;;7.60;99.90;;;;;;7574223;19;21382;-82
2023/05/18 05:12:21;;;;;;;17.73;10.30;;;7.70;99.90;;;;;;7583885;19;20167;-83
2023/05/18 05:14:53;;;;;;;16.23;8.95;;;7.70;99.90;;;;;;7586352;19;20093;-83
2023/05/18 05:17:26;;;;;;;19.42;10.07;;;7.80;99.90;;;;;;7595750;19;20368;-83
2023/05/18 05:19:58;;;;;;;13.90;8.68;;;7.90;99.90;;;;;;7585791;19;20093;-83
2023/05/18 05:22:31;;;;;;;16.52;8.82;;;7.90;99.90;;;;;;7598115;19;20026;-83
2023/05/18 05:25:05;;;;;;;17.65;9.40;;;8.00;99.90;;;;;;7582955;19;20018;-84
2023/05/18 05:27:38;;;;;;;13.43;8.70;;;8.10;99.90;;;;;;7587946;19;20885;-83
2023/05/18 05:30:11;;;;;;;12.17;8.30;;;8.30;99.90;;;;;;7590562;19;20109;-83
2023/05/18 05:32:45;;;;;;;17.52;8.40;;;8.40;99.90;;;;;;7601766;19;20022;-82
2023/05/18 05:35:18;;;;;;;15.73;8.38;;;8.40;99.90;;;;;;7596345;19;20544;-82
2023/05/18 05:37:51;;;;;;;15.93;8.13;;;8.50;99.90;;;;;;7590827;19;20529;-83
2023/05/18 05:40:25;;;;;;;16.50;8.30;;;8.50;99.90;;;;;;7592727;19;20022;-82
2023/05/18 05:42:58;;;;;;;14.27;8.13;;;8.60;99.90;;;;;;7600802;19;20026;-83
2023/05/18 05:45:30;;;;;;;15.80;8.07;;;8.70;99.90;;;;;;7607169;19;20483;-82
2023/05/18 05:48:06;;;;;;;17.27;7.25;;;8.80;99.90;;;;;;7596222;19;20405;-82
2023/05/18 05:50:39;;;;;;;11.45;7.25;;;8.90;99.90;;;;;;7593155;19;20022;-83
2023/05/18 05:53:11;;;;;;;13.38;7.68;;;9.00;99.90;;;;;;7595005;19;20014;-83
2023/05/18 05:55:45;;;;;;;14.97;7.67;;;9.10;99.90;;;;;;7608644;19;20018;-83
2023/05/18 05:58:20;;;;;;;16.35;7.88;;;9.20;99.90;;;;;;7613258;19;20011;-84
2023/05/18 06:00:57;;;;;;;12.73;7.53;;;9.20;99.90;;;;;;7605047;19;20901;-84
2023/05/18 06:03:30;;;;;;;15.20;7.90;;;9.40;99.90;;;;;;7600723;19;20029;-84
2023/05/18 06:06:09;;;;;;;12.88;7.13;;;9.40;99.90;;;;;;7612643;19;20018;-84
2023/05/18 06:08:42;;;;;;;18.88;6.97;;;9.50;99.90;;;;;;7608807;19;20025;-84
2023/05/18 06:11:14;;;;;;;14.82;7.40;;;9.70;99.90;;;;;;7614060;19;20022;-83
2023/05/18 06:13:46;;;;;;;15.43;7.15;;;9.80;99.90;;;;;;7618972;19;20713;-84
2023/05/18 06:16:18;;;;;;;13.95;7.22;;;9.90;99.90;;;;;;7621093;19;20018;-83
2023/05/18 06:18:51;;;;;;;12.63;7.07;;;9.90;99.90;;;;;;7617180;19;20036;-84
2023/05/18 06:21:24;;;;;;;19.70;7.43;;;10.00;99.90;;;;;;7607762;19;20046;-84
2023/05/18 06:23:56;;;;;;;20.20;7.63;;;10.00;99.90;;;;;;7584155;19;20360;-83
2023/05/18 06:26:48;;;;;;;18.40;7.22;;;10.00;99.90;;;;;;7592837;19;20014;-85
2023/05/18 06:29:40;;;;;;;12.93;6.85;;;10.10;99.90;;;;;;7602969;19;20022;-83
2023/05/18 06:32:18;;;;;;;14.65;6.45;;;10.20;99.90;;;;;;7602495;19;20022;-84
2023/05/18 06:34:57;;;;;;;17.48;6.60;;;10.30;99.90;;;;;;7607432;19;20087;-84
2023/05/18 06:37:29;;;;;;;16.75;6.18;;;10.50;99.90;;;;;;7605634;19;20981;-83
2023/05/18 06:40:03;;;;;;;15.02;6.10;;;10.50;99.90;;;;;;7599901;19;20030;-82
2023/05/18 06:42:36;;;;;;;12.50;5.95;;;10.50;99.90;;;;;;7611273;19;20360;-83
2023/05/18 06:45:27;;;;;;;14.68;6.20;;;10.50;99.90;;;;;;7612650;19;20022;-83
2023/05/18 06:48:12;;;;;;;9.98;5.80;;;10.50;99.90;;;;;;7583078;19;20723;-87
2023/05/18 06:50:45;;;;;;;17.93;6.03;;;10.50;99.90;;;;;;7606271;19;20017;-85
2023/05/18 06:53:17;;;;;;;15.65;5.78;;;10.60;99.90;;;;;;7588862;19;20084;-85
2023/05/18 06:55:50;;;;;;;13.80;5.07;;;10.70;99.90;;;;;;7593261;19;20051;-84
2023/05/18 06:58:22;;;;;;;13.45;5.15;;;10.70;99.90;;;;;;7585494;19;20038;-86
2023/05/18 07:00:55;;;;;;;14.98;5.15;;;10.60;99.90;;;;;;7599575;19;20010;-87
2023/05/18 07:03:28;;;;;;;15.38;5.72;;;10.70;99.90;;;;;;7606095;19;20804;-85
2023/05/18 07:06:03;;;;;;;14.25;5.65;;;10.80;99.90;;;;;;7619808;19;20027;-84
2023/05/18 07:08:39;;;;;;;11.30;5.90;;;10.80;99.90;;;;;;7605093;19;20520;-84
2023/05/18 07:11:11;;;;;;;11.95;6.00;;;10.90;99.90;;;;;;7583804;19;20019;-85
2023/05/18 07:13:43;;;;;;;12.38;4.80;;;11.00;99.90;;;;;;7587562;19;20048;-85
2023/05/18 07:16:16;;;;;;;17.05;5.47;;;11.00;99.90;;;;;;7601214;19;20915;-85
2023/05/18 07:18:48;;;;;;;12.07;4.97;;;11.20;99.90;;;;;;7612789;19;20014;-84
2023/05/18 07:21:20;;;;;;;11.38;5.07;;;11.40;99.90;;;;;;7604157;19;20015;-84
2023/05/18 07:23:52;;;;;;;14.55;5.68;;;11.50;99.60;;;;;;7604510;19;20551;-84
2023/05/18 07:26:25;;;;;;;15.57;5.43;;;11.70;99.10;;;;;;7606472;19;20018;-84
2023/05/18 07:28:57;;;;;;;28.27;5.32;;;11.70;99.40;;;;;;7609112;19;20014;-84
2023/05/18 07:31:32;;;;;;;12.93;5.53;;;11.90;99.60;;;;;;7617169;19;20022;-84
2023/05/18 07:34:04;;;;;;;17.60;5.28;;;11.90;98.00;;;;;;7603397;19;20010;-83
2023/05/18 07:36:37;;;;;;;13.00;4.60;;;12.00;97.90;;;;;;7616179;19;20036;-85
2023/05/18 07:39:16;;;;;;;10.57;4.72;;;12.20;97.90;;;;;;7577721;19;20034;-84
2023/05/18 07:41:50;;;;;;;12.20;4.68;;;12.40;96.70;;;;;;7588691;19;20015;-86
2023/05/18 07:44:23;;;;;;;8.63;4.18;;;12.40;94.70;;;;;;7632238;19;20589;-85
2023/05/18 07:46:55;;;;;;;12.45;4.80;;;12.50;94.10;;;;;;7673301;19;20026;-86
2023/05/18 07:49:28;;;;;;;15.90;5.05;;;12.60;94.00;;;;;;7670501;19;20039;-87
2023/05/18 07:52:01;;;;;;;10.05;4.22;;;12.70;93.50;;;;;;7659925;19;20046;-86
2023/05/18 07:54:33;;;;;;;12.88;4.15;;;12.70;92.90;;;;;;7654172;19;20002;-85
2023/05/18 07:57:05;;;;;;;12.55;4.45;;;12.80;91.90;;;;;;7648296;19;21099;-86
2023/05/18 07:59:38;;;;;;;14.07;4.15;;;12.80;91.90;;;;;;7640739;19;20022;-86
2023/05/18 08:02:10;;;;;;;13.43;4.47;;;12.90;91.80;;;;;;7642208;19;20006;-86
2023/05/18 08:04:43;;;;;;;10.75;4.18;;;13.00;91.90;;;;;;7645487;19;20169;-84
2023/05/18 08:07:17;;;;;;;9.25;4.43;;;13.00;90.90;;;;;;7621345;19;20021;-85
2023/05/18 08:09:49;;;;;;;19.15;4.82;;;13.00;90.60;;;;;;7615091;19;20019;-84
2023/05/18 08:12:22;;;;;;;11.35;4.53;;;13.10;90.60;;;;;;7619739;19;20011;-87
2023/05/18 08:14:54;;;;;;;14.00;5.65;;;13.20;90.20;;;;;;7618622;19;20794;-85
2023/05/18 08:17:27;;;;;;;11.80;4.95;;;13.20;90.20;;;;;;7591849;19;20734;-87
2023/05/18 08:19:59;;;;;;;12.98;5.05;;;13.30;90.40;;;;;;7586006;19;20021;-82
2023/05/18 08:22:34;;;;;;;11.50;5.07;;;13.40;90.90;;;;;;7602840;19;20052;-83
2023/05/18 08:25:08;;;;;;;8.15;4.55;;;13.50;90.10;;;;;;7608874;19;20014;-82
2023/05/18 08:27:43;;;;;;;12.00;5.07;;;13.40;90.40;;;;;;7608079;19;20010;-82
2023/05/18 08:30:20;;;;;;;9.65;4.72;;;13.40;91.10;;;;;;7599060;19;20052;-83
2023/05/18 08:32:52;;;;;;;8.68;5.40;;;13.40;91.30;;;;;;7595675;19;20019;-82
2023/05/18 08:35:25;;;;;;;14.10;5.60;;;13.10;91.00;;;;;;7588697;19;20031;-83
2023/05/18 08:37:57;;;;;;;16.52;6.45;;;13.10;91.00;;;;;;7582326;19;20098;-82
2023/05/18 08:40:42;;;;;;;11.68;6.00;;;13.30;91.60;;;;;;7581578;19;20015;-84
2023/05/18 08:43:21;;;;;;;12.23;5.68;;;13.50;91.20;;;;;;7579393;19;20011;-85
2023/05/18 08:46:03;;;;;;;11.43;4.95;;;13.60;90.40;;;;;;7603078;19;20025;-85
2023/05/18 08:48:36;;;;;;;13.15;5.22;;;13.40;90.20;;;;;;7598393;19;20363;-86
2023/05/18 08:51:09;;;;;;;10.48;5.10;;;13.30;90.80;;;;;;7602193;19;20006;-85
2023/05/18 08:53:43;;;;;;;9.37;5.17;;;13.30;91.00;;;;;;7608974;19;20025;-85
2023/05/18 08:56:15;;;;;;;14.05;5.30;;;13.40;91.00;;;;;;7618798;19;21274;-85
2023/05/18 08:58:53;;;;;;;12.10;4.60;;;13.40;90.50;;;;;;7596901;19;20023;-85
2023/05/18 09:01:30;;;;;;;9.35;4.72;;;13.40;90.40;;;;;;7594998;19;20082;-85
2023/05/18 09:04:03;;;;;;;12.73;5.00;;;13.30;89.90;;;;;;7585735;19;20026;-85
2023/05/18 09:06:36;;;;;;;12.27;5.10;;;13.20;90.00;;;;;;7601525;19;20029;-84
2023/05/18 09:09:09;;;;;;;13.52;5.35;;;13.10;90.00;;;;;;7593544;19;20010;-84
2023/05/18 09:11:43;;;;;;;17.08;5.30;;;13.00;90.30;;;;;;7595315;19;20278;-85
2023/05/18 09:14:15;;;;;;;8.35;5.47;;;13.00;90.40;;;;;;7599442;19;20040;-86
2023/05/18 09:16:47;;;;;;;12.50;5.65;;;12.90;90.70;;;;;;7611660;19;20022;-84
2023/05/18 09:19:20;;;;;;;16.20;6.40;;;12.80;90.80;;;;;;7612707;19;20031;-84
2023/05/18 09:21:52;;;;;;;9.68;5.00;;;12.80;91.10;;;;;;7607133;19;20925;-84
2023/05/18 09:24:25;;;;;;;11.02;4.97;;;12.90;91.30;;;;;;7603631;19;20039;-85
2023/05/18 09:26:58;;;;;;;12.23;5.30;;;12.90;91.40;;;;;;7604789;19;20022;-84
2023/05/18 09:29:30;;;;;;;13.02;5.97;;;13.10;91.60;;;;;;7566508;19;20022;-83
2023/05/18 09:32:10;;;;;;;9.35;4.55;;;13.10;90.90;;;;;;7588286;19;20764;-84
2023/05/18 09:34:44;;;;;;;15.30;5.05;;;13.00;90.20;;;;;;7615660;19;20022;-84
2023/05/18 09:37:19;;;;;;;;;;;12.90;90.50;;;;;;7623106;19;20067;-85
2023/05/18 09:40:04;;;;;;;15.63;5.75;;;12.60;90.20;;;;;;7617224;19;20565;-84
2023/05/18 09:42:38;;;;;;;13.77;5.35;;;12.80;90.60;;;;;;7601496;19;20018;-83
2023/05/18 09:45:16;;;;;;;14.40;5.68;;;12.90;90.70;;;;;;7580485;19;20014;-85
2023/05/18 09:47:49;;;;;;;13.55;5.13;;;12.80;90.30;;;;;;7592832;19;20486;-84
2023/05/18 09:50:23;;;;;;;15.18;5.47;;;12.80;90.70;;;;;;7589653;19;20026;-84
2023/05/18 09:52:56;;;;;;;13.10;5.20;;;12.80;90.50;;;;;;7576338;19;20018;-82
2023/05/18 09:55:29;;;;;;;14.10;5.53;;;13.00;90.10;;;;;;7577478;19;20018;-83
2023/05/18 09:58:03;;;;;;;11.80;5.38;;;13.10;88.10;;;;;;7589142;19;20015;-84
2023/05/18 10:00:39;;;;;;;16.85;5.80;;;13.20;88.20;;;;;;7610872;19;20018;-83
2023/05/18 10:03:22;;;;;;;13.68;6.30;;;13.10;87.70;;;;;;7601322;19;20742;-83
2023/05/18 10:05:55;;;;;;;13.52;5.72;;;13.00;87.80;;;;;;7613393;19;20096;-83
2023/05/18 10:08:27;;;;;;;12.43;5.60;;;13.00;89.00;;;;;;7589027;19;20010;-84
2023/05/18 10:10:59;;;;;;;12.07;5.68;;;13.00;88.10;;;;;;7600395;19;20015;-84
2023/05/18 10:13:33;;;;;;;12.13;5.65;;;13.30;87.50;;;;;;7586608;19;20010;-83
2023/05/18 10:16:07;;;;;;;11.35;5.90;;;13.30;86.80;;;;;;7605231;19;20030;-84
2023/05/18 10:18:40;;;;;;;16.35;5.88;;;13.30;86.90;;;;;;7602098;19;20010;-82
2023/05/18 10:21:14;;;;;;;13.27;5.50;;;13.40;87.10;;;;;;7598489;19;20035;-83
2023/05/18 10:23:49;;;;;;;11.70;5.30;;;13.60;86.70;;;;;;7579623;19;20018;-83
2023/05/18 10:26:27;;;;;;;16.75;4.80;;;13.80;86.80;;;;;;7580290;19;20519;-84
2023/05/18 10:29:01;;;;;;;9.90;4.90;;;13.70;85.10;;;;;;7589339;19;20028;-83
2023/05/18 10:31:36;;;;;;;16.92;5.50;;;13.70;86.70;;;;;;7586043;19;20007;-84
2023/05/18 10:34:09;;;;;;;11.63;5.15;;;13.50;85.90;;;;;;7603228;19;20014;-83
2023/05/18 10:36:42;;;;;;;9.05;4.80;;;13.40;85.80;;;;;;7618853;19;20039;-83
2023/05/18 10:39:16;;;;;;;11.13;5.00;;;13.40;86.30;;;;;;7619030;19;20015;-82
2023/05/18 10:41:53;;;;;;;11.95;5.65;;;13.40;86.20;;;;;;7615716;19;20021;-83
2023/05/18 10:44:26;;;;;;;18.75;5.82;;;13.30;85.90;;;;;;7616279;19;20041;-84
2023/05/18 10:46:58;;;;;;;10.93;5.40;;;13.30;86.70;;;;;;7622804;19;20064;-83
2023/05/18 10:49:31;;;;;;;12.30;6.40;;;13.30;87.00;;;;;;7606881;19;20014;-83
2023/05/18 10:52:06;;;;;;;17.70;6.55;;;13.30;86.80;;;;;;7589442;19;20014;-83
2023/05/18 10:54:40;;;;;;;9.77;5.00;;;13.30;85.80;;;;;;7592026;19;20006;-83
2023/05/18 10:57:17;;;;;;;9.00;5.00;;;13.20;86.20;;;;;;7575687;19;20042;-81
2023/05/18 10:59:49;;;;;;;14.68;5.22;;;13.30;86.10;;;;;;7597169;19;20010;-84
2023/05/18 11:02:22;;;;;;;11.75;5.13;;;13.50;85.50;;;;;;7595294;19;20622;-82
2023/05/18 11:04:55;;;;;;;11.88;5.10;;;13.70;84.20;;;;;;7591726;19;20019;-82
2023/05/18 11:07:29;;;;;;;7.68;4.65;;;13.80;84.50;;;;;;7603864;19;20007;-82
2023/05/18 11:10:07;;;;;;;11.10;4.50;;;13.80;83.40;;;;;;7610302;19;20046;-83
2023/05/18 11:12:40;;;;;;;8.57;4.60;;;13.60;83.80;;;;;;7606241;19;20014;-82
2023/05/18 11:15:12;;;;;;;13.15;5.65;;;13.60;84.50;;;;;;7596999;19;20010;-82
2023/05/18 11:17:45;;;;;;;9.48;4.80;;;13.60;83.60;;;;;;7589239;19;20014;-81
2023/05/18 11:20:23;;;;;;;7.40;4.28;;;13.70;83.80;;;;;;7574867;19;20702;-81
2023/05/18 11:22:58;;;;;;;9.25;4.45;;;13.80;83.30;;;;;;7579775;19;20878;-82
2023/05/18 11:25:31;;;;;;;6.53;4.20;;;13.90;81.00;;;;;;7588607;19;20014;-81
2023/05/18 11:28:06;;;;;;;12.73;4.87;;;13.90;80.50;;;;;;7593935;19;20030;-80
2023/05/18 11:30:39;;;;;;;11.32;4.30;;;14.00;81.60;;;;;;7633869;19;20023;-81
2023/05/18 11:33:16;;;;;;;8.52;4.40;;;13.90;81.80;;;;;;7631806;19;20076;-82
2023/05/18 11:36:07;;;;;;;13.18;4.40;;;13.70;82.40;;;;;;7636118;19;20014;-82
2023/05/18 11:38:54;;;;;;;13.23;4.55;;;13.70;83.50;;;;;;7631054;19;20018;-83
2023/05/18 11:41:30;;;;;;;8.57;3.97;;;13.90;82.20;;;;;;7619951;19;20013;-82
2023/05/18 11:44:13;;;;;;;8.68;3.88;;;13.90;81.00;;;;;;7610686;19;20629;-83
2023/05/18 11:47:01;;;;;;;9.27;4.45;;;14.10;80.90;;;;;;7605001;19;20011;-83
2023/05/18 11:49:46;;;;;;;9.10;4.25;;;14.30;80.00;;;;;;7598413;19;20090;-82
2023/05/18 11:52:19;;;;;;;11.43;4.88;;;14.40;80.20;;;;;;7590324;19;20359;-83
2023/05/18 11:54:53;;;;;;;11.27;4.63;;;14.40;81.40;;;;;;7582317;19;20017;-82
2023/05/18 11:57:37;;;;;;;8.57;4.03;;;14.60;81.50;;;;;;7577002;19;20033;-83
2023/05/18 12:00:14;;;;;;;7.40;3.60;;;14.80;80.30;;;;;;7548823;19;20011;-82
2023/05/18 12:02:47;;;;;;;8.02;4.03;;;15.10;78.30;;;;;;7540694;19;20056;-82
2023/05/18 12:05:21;;;;;;;9.73;3.60;;;15.00;77.60;;;;;;7582049;19;20018;-82
2023/05/18 12:07:53;;;;;;;5.85;3.80;;;14.70;78.10;;;;;;7572740;19;20014;-82
2023/05/18 12:10:25;;;;;;;5.60;3.10;;;14.60;78.00;;;;;;7550978;19;21883;-81
2023/05/18 12:12:59;;;;;;;7.70;3.72;;;14.50;78.60;;;;;;7531947;19;20047;-81
2023/05/18 12:15:34;;;;;;;9.23;4.53;;;14.50;79.60;;;;;;7541196;19;20014;-82
2023/05/18 12:18:06;;;;;;;11.07;4.28;;;15.00;78.70;;;;;;7546405;19;20014;-82
2023/05/18 12:20:39;;;;;;;7.03;4.20;;;15.30;78.10;;;;;;7537720;19;20010;-82
2023/05/18 12:23:12;;;;;;;7.65;4.57;;;15.10;77.20;;;;;;7562054;19;20011;-81
2023/05/18 12:25:49;;;;;;;7.05;3.92;;;15.10;77.40;;;;;;7538679;19;20018;-79
2023/05/18 12:28:22;;;;;;;10.27;4.40;;;15.20;76.90;;;;;;7574129;19;20696;-84
2023/05/18 12:30:55;;;;;;;10.35;4.97;;;15.40;76.40;;;;;;7568499;19;20022;-83
2023/05/18 12:33:27;;;;;;;;;;;15.50;74.70;;;;;;7576718;19;20074;-83
2023/05/18 12:36:00;;;;;;;8.63;3.88;;;15.30;74.80;;;;;;7567844;19;19927;-84
2023/05/18 12:38:33;;;;;;;8.05;3.70;;;15.30;77.20;;;;;;7588966;19;20015;-84
2023/05/18 12:41:05;;;;;;;13.00;3.97;;;15.20;76.80;;;;;;7587017;19;20805;-84
2023/05/18 12:43:39;;;;;;;5.72;3.83;;;15.10;76.00;;;;;;7592465;19;20014;-83
2023/05/18 12:46:11;;;;;;;10.75;3.88;;;15.00;75.90;;;;;;7586557;19;20014;-83
2023/05/18 12:48:54;;;;;;;7.47;3.90;;;14.80;76.20;;;;;;7567383;19;20022;-82
2023/05/18 12:51:34;;;;;;;9.23;4.07;;;14.90;77.80;;;;;;7063688;19;10000377;-84
2023/05/18 12:54:08;;;;;;;11.82;3.58;;;15.20;76.90;;;;;;7573983;19;20007;-86
2023/05/18 12:57:00;;;;;;;9.80;3.80;;;15.30;76.40;;;;;;7575827;19;22432;-85
2023/05/18 12:59:33;;;;;;;7.15;3.70;;;15.10;74.90;;;;;;7574982;19;20011;-85
2023/05/18 13:02:05;;;;;;;9.60;3.42;;;15.00;76.20;;;;;;7588709;19;21021;-84
2023/05/18 13:04:38;;;;;;;6.88;3.50;;;14.90;76.30;;;;;;7581012;19;20014;-85
2023/05/18 13:07:11;;;;;;;8.07;3.40;;;14.80;76.80;;;;;;7610923;19;20010;-85
2023/05/18 13:09:46;;;;;;;8.38;4.13;;;14.90;77.30;;;;;;7592887;19;20017;-83
2023/05/18 13:12:35;;;;;;;5.32;3.50;;;14.70;76.20;;;;;;7592057;19;20061;-83
2023/05/18 13:15:12;;;;;;;8.27;3.50;;;14.60;77.90;;;;;;7589564;19;20039;-83
2023/05/18 13:18:05;;;;;;;11.13;3.90;;;14.50;78.40;;;;;;7575458;19;20102;-83
2023/05/18 13:20:50;;;;;;;9.60;4.20;;;14.50;77.30;;;;;;7586956;19;25484;-86